Flight Track Log - Related Links

Times and Time Zones

All times are in EST time to prevent confusion due to time zone crossing. See the AFL150 flight status page for this flight to view local times or setup timezone preferences in your user account.

Time Position Orientation Groundspeed Altitude Reporting Facility
EST Latitude Longitude Course Direction KTS MPH feet Rate Location/Type
Tue 05:06:00 AM 56.1765 37.0171 315° West  Level FlightAware Approximate
Tue 05:07:00 AM 56.2590 36.8664 315° West  Level FlightAware Approximate
Tue 05:08:00 AM 56.3412 36.7151 314° West  Level FlightAware Approximate
Tue 05:09:00 AM 56.4233 36.5632 314° West  Level FlightAware Approximate
Tue 05:10:00 AM 56.5052 36.4105 314° West  Level FlightAware Approximate
Tue 05:11:00 AM 56.5869 36.2573 314° West  Level FlightAware Approximate
Tue 05:12:00 AM 56.6684 36.1033 314° West  Level FlightAware Approximate
Tue 05:13:00 AM 56.7498 35.9487 314° West  Level FlightAware Approximate
Tue 05:14:00 AM 56.8309 35.7934 314° West  Level FlightAware Approximate
Tue 05:15:00 AM 56.9118 35.6375 314° West  Level FlightAware Approximate
Tue 05:16:00 AM 56.9926 35.4809 313° West  Level FlightAware Approximate
Tue 05:17:00 AM 57.0732 35.3236 313° West  Level FlightAware Approximate
Tue 05:18:00 AM 57.1535 35.1656 313° West  Level FlightAware Approximate
Tue 05:19:00 AM 57.2337 35.0069 313° West  Level FlightAware Approximate
Tue 05:20:00 AM 57.3136 34.8475 313° West  Level FlightAware Approximate
Tue 05:21:00 AM 57.3934 34.6875 313° West  Level FlightAware Approximate
Tue 05:22:00 AM 57.4729 34.5267 313° West  Level FlightAware Approximate
Tue 05:23:00 AM 57.5392 34.3460 310° West  Level Estimated
Tue 05:24:00 AM 57.6155 34.1792 311° West  Level FlightAware Approximate
Tue 05:25:00 AM 57.6916 34.0118 310° West  Level FlightAware Approximate
Tue 05:26:00 AM 57.7675 33.8437 310° West  Level FlightAware Approximate
Tue 05:27:00 AM 57.8432 33.6749 310° West  Level FlightAware Approximate
Tue 05:28:00 AM 57.9186 33.5054 310° West  Level FlightAware Approximate
Tue 05:29:00 AM 57.9938 33.3351 310° West  Level FlightAware Approximate
Tue 05:30:00 AM 58.0688 33.1642 310° West  Level FlightAware Approximate
Tue 05:31:00 AM 58.1436 32.9925 310° West  Level FlightAware Approximate
Tue 05:32:00 AM 58.2181 32.8201 309° West  Level FlightAware Approximate
Tue 05:33:00 AM 58.2924 32.6470 309° West  Level FlightAware Approximate
Tue 05:34:00 AM 58.3664 32.4731 309° West  Level FlightAware Approximate
Tue 05:35:00 AM 58.4403 32.2985 309° West  Level FlightAware Approximate
Tue 05:36:00 AM 58.5138 32.1232 309° West  Level FlightAware Approximate
Tue 05:37:00 AM 58.5872 31.9472 309° West  Level FlightAware Approximate
Tue 05:38:00 AM 58.6603 31.7704 309° West  Level FlightAware Approximate
Tue 05:39:00 AM 58.7331 31.5929 308° West  Level FlightAware Approximate
Tue 05:40:00 AM 58.8057 31.4146 308° West  Level FlightAware Approximate
Tue 05:41:00 AM 58.8781 31.2356 308° West  Level FlightAware Approximate
Tue 05:42:00 AM 58.9502 31.0558 308° West  Level FlightAware Approximate
Tue 05:43:00 AM 59.0221 30.8753 308° West  Level FlightAware Approximate
Tue 05:44:00 AM 59.0937 30.6940 308° West  Level FlightAware Approximate
Tue 05:45:00 AM 59.1651 30.5120 307° West  Level FlightAware Approximate
Tue 05:46:00 AM 59.2362 30.3292 307° West  Level FlightAware Approximate
Tue 05:47:00 AM 59.3070 30.1457 307° West  Level FlightAware Approximate
Tue 05:48:00 AM 59.3776 29.9613 307° West  Level FlightAware Approximate
Tue 05:49:00 AM 59.4479 29.7762 307° West  Level FlightAware Approximate
Tue 05:50:00 AM 59.5180 29.5904 307° West  Level FlightAware Approximate
Tue 05:51:00 AM 59.5878 29.4037 307° West  Level FlightAware Approximate
Tue 05:52:00 AM 59.6573 29.2164 306° West  Level FlightAware Approximate
Tue 05:53:00 AM 59.7266 29.0282 306° West  Level FlightAware Approximate
Tue 05:54:00 AM 59.7956 28.8392 306° West  Level FlightAware Approximate
Tue 05:55:00 AM 59.8643 28.6495 306° West  Level FlightAware Approximate
Tue 05:56:00 AM 59.9328 28.4589 306° West  Level FlightAware Approximate
Tue 05:57:00 AM 60.0009 28.2676 306° West  Level FlightAware Approximate
Tue 05:58:00 AM 60.0688 28.0755 305° West  Level FlightAware Approximate
Tue 05:59:00 AM 60.1364 27.8826 305° West  Level FlightAware Approximate
Tue 06:00:00 AM 60.2038 27.6890 305° West  Level FlightAware Approximate
Tue 06:01:00 AM 60.2708 27.4945 305° West  Level FlightAware Approximate
Tue 06:02:00 AM 60.3376 27.2992 305° West  Level FlightAware Approximate
Tue 06:03:00 AM 60.3928 27.0894 304° West  Level Estimated
Tue 06:04:00 AM 60.4586 26.8921 304° West  Level FlightAware Approximate
Tue 06:05:00 AM 60.5242 26.6940 304° West  Level FlightAware Approximate
Tue 06:06:00 AM 60.5894 26.4951 304° West  Level FlightAware Approximate
Tue 06:07:00 AM 60.6544 26.2954 304° West  Level FlightAware Approximate
Tue 06:08:00 AM 60.7190 26.0949 303° West  Level FlightAware Approximate
Tue 06:09:00 AM 60.7834 25.8936 303° West  Level FlightAware Approximate
Tue 06:10:00 AM 60.8474 25.6915 303° West  Level FlightAware Approximate
Tue 06:11:00 AM 60.9112 25.4885 303° West  Level FlightAware Approximate
Tue 06:12:00 AM 60.9746 25.2848 303° West  Level FlightAware Approximate
Tue 06:13:00 AM 61.0378 25.0802 303° West  Level FlightAware Approximate
Tue 06:14:00 AM 61.1006 24.8749 302° West  Level FlightAware Approximate
Tue 06:15:00 AM 61.1631 24.6687 302° West  Level FlightAware Approximate
Tue 06:16:00 AM 61.2253 24.4617 302° West  Level FlightAware Approximate
Tue 06:17:00 AM 61.2871 24.2539 302° West  Level FlightAware Approximate
Tue 06:18:00 AM 61.3487 24.0452 302° West  Level FlightAware Approximate
Tue 06:19:00 AM 61.4099 23.8358 301° West  Level FlightAware Approximate
Tue 06:20:00 AM 61.4708 23.6255 301° West  Level FlightAware Approximate
Tue 06:21:00 AM 61.5314 23.4144 301° West  Level FlightAware Approximate
Tue 06:22:00 AM 61.5917 23.2025 301° West  Level FlightAware Approximate
Tue 06:23:00 AM 61.6516 22.9897 301° West  Level FlightAware Approximate
Tue 06:24:00 AM 61.7112 22.7761 301° West  Level FlightAware Approximate
Tue 06:25:00 AM 61.7705 22.5618 300° West  Level FlightAware Approximate
Tue 06:26:00 AM 61.8294 22.3465 300° West  Level FlightAware Approximate
Tue 06:27:00 AM 61.8880 22.1305 300° West  Level FlightAware Approximate
Tue 06:28:00 AM 61.9463 21.9136 300° West  Level FlightAware Approximate
Tue 06:29:00 AM 62.0042 21.6959 300° West  Level FlightAware Approximate
Tue 06:30:00 AM 62.0617 21.4774 299° West  Level FlightAware Approximate
Tue 06:31:00 AM 62.1189 21.2580 299° West  Level FlightAware Approximate
Tue 06:31:27 AM 59.0199 20.3196 299° West 419 482 36,000  Level FlightAware ADS-B
Tue 06:31:57 AM 59.0373 20.2107 287° West 418 481 36,000  Level FlightAware ADS-B
Tue 06:32:28 AM 59.0552 20.0978 287° West 418 481 36,000  Level FlightAware ADS-B
Tue 06:33:00 AM 59.0731 19.9849 287° West 418 481 36,000  Level FlightAware ADS-B
Tue 06:33:30 AM 59.0907 19.8734 287° West 418 481 36,000  Level FlightAware ADS-B
Tue 06:34:01 AM 59.1074 19.7660 287° West 418 481 36,000  Level FlightAware ADS-B
Tue 06:34:32 AM 59.1248 19.6537 287° West 418 481 36,000  Level FlightAware ADS-B
Tue 06:35:11 AM 59.1464 19.5130 287° West 417 480 36,000  Level FlightAware ADS-B
Tue 06:35:51 AM 59.1684 19.3682 287° West 417 480 36,000  Level FlightAware ADS-B
Tue 06:36:21 AM 59.1850 19.2581 286° West 419 482 36,000  Level FlightAware ADS-B
Tue 06:36:51 AM 59.2015 19.1487 286° West 419 482 36,000  Level FlightAware ADS-B
Tue 06:37:30 AM 59.2224 19.0086 286° West 420 483 36,000  Level FlightAware ADS-B
Tue 06:38:01 AM 59.2388 18.8971 286° West 420 483 36,000  Level FlightAware ADS-B
Tue 06:38:41 AM 59.2604 18.7505 286° West 420 483 36,000  Level FlightAware ADS-B
Tue 06:39:11 AM 59.2766 18.6395 286° West 420 483 36,000  Level FlightAware ADS-B
Tue 06:39:50 AM 59.2970 18.4982 286° West 420 483 36,000  Level FlightAware ADS-B
Tue 06:40:21 AM 59.3127 18.3887 286° West 420 483 36,000  Level FlightAware ADS-B
Tue 06:41:01 AM 59.3337 18.2408 286° West 420 483 36,000  Level FlightAware ADS-B
Tue 06:41:31 AM 59.3491 18.1324 286° West 420 483 36,000  Level FlightAware ADS-B
Tue 06:42:10 AM 59.3692 17.9877 285° West 421 484 36,000  Level FlightAware ADS-B
Tue 06:42:41 AM 59.3851 17.8735 285° West 419 482 36,000  Level FlightAware ADS-B
Tue 06:43:20 AM 59.4048 17.7303 285° West 417 480 36,000  Level FlightAware ADS-B
Tue 06:43:51 AM 59.4203 17.6169 285° West 417 480 36,000  Level FlightAware ADS-B
Tue 06:44:31 AM 59.4401 17.4729 285° West 414 476 36,000  Level FlightAware ADS-B
Tue 06:45:11 AM 59.4591 17.3307 285° West 413 475 36,000  Level FlightAware ADS-B
Tue 06:45:46 AM 59.4765 17.1987 285° West 413 475 36,000  Level FlightAware ADS-B
Tue 06:46:21 AM 59.4933 17.0711 285° West 415 478 36,000  Level FlightAware ADS-B
Tue 06:47:01 AM 59.5123 16.9258 285° West 415 478 36,000  Level FlightAware ADS-B
Tue 06:47:31 AM 59.5268 16.8139 284° West 416 479 36,000  Level FlightAware ADS-B
Tue 06:48:01 AM 59.5408 16.7059 284° West 415 478 36,000  Level FlightAware ADS-B
Tue 06:48:31 AM 59.5551 16.5950 284° West 415 478 36,000  Level FlightAware ADS-B
Tue 06:51:00 AM 59.6514 16.0505 290° West  Level Estimated
Tue 06:51:10 AM 59.6277 16.0120 290° West 415 478 36,000  Level FlightAware ADS-B
Tue 06:53:00 AM 59.6973 15.6082 289° West  Level Estimated
Tue 06:54:00 AM 59.7347 15.3873 289° West  Level Estimated
Tue 06:55:00 AM 59.7718 15.1658 288° West  Level Estimated
Tue 06:56:00 AM 59.8084 14.9439 288° West  Level Estimated
Tue 06:57:00 AM 59.8448 14.7215 288° West  Level Estimated
Tue 06:58:00 AM 59.8807 14.4986 288° West  Level Estimated
Tue 06:59:00 AM 59.9162 14.2752 288° West  Level Estimated
Tue 07:00:00 AM 59.9514 14.0513 288° West  Level Estimated
Tue 07:01:00 AM 59.9862 13.8270 287° West  Level Estimated
Tue 07:02:00 AM 60.0206 13.6022 287° West  Level Estimated
Tue 07:03:00 AM 60.0547 13.3769 287° West  Level Estimated
Tue 07:04:00 AM 60.0883 13.1512 287° West  Level Estimated
Tue 07:05:00 AM 60.1216 12.9250 287° West  Level Estimated
Tue 07:06:00 AM 60.1545 12.6984 286° West  Level Estimated
Tue 07:07:00 AM 60.1870 12.4713 286° West  Level Estimated
Tue 07:08:00 AM 60.2191 12.2437 286° West  Level Estimated
Tue 07:09:00 AM 60.2508 12.0157 286° West  Level Estimated
Tue 07:10:00 AM 60.2821 11.7873 286° West  Level Estimated
Tue 07:11:00 AM 60.3130 11.5584 285° West  Level Estimated
Tue 07:12:00 AM 60.3436 11.3292 285° West  Level Estimated
Tue 07:13:00 AM 60.3737 11.0994 285° West  Level Estimated
Tue 07:14:00 AM 60.4035 10.8693 285° West  Level Estimated
Tue 07:15:00 AM 60.4328 10.6387 285° West  Level Estimated
Tue 07:16:00 AM 60.4617 10.4078 284° West  Level Estimated
Tue 07:17:00 AM 60.4903 10.1764 284° West  Level Estimated
Tue 07:18:00 AM 60.5184 9.9446 284° West  Level Estimated
Tue 07:19:00 AM 60.5462 9.7124 284° West  Level Estimated
Tue 07:20:00 AM 60.5735 9.4798 284° West  Level Estimated
Tue 07:21:00 AM 60.6004 9.2469 283° West  Level Estimated
Tue 07:22:00 AM 60.6270 9.0135 283° West  Level Estimated
Tue 07:23:00 AM 60.6531 8.7798 283° West  Level Estimated
Tue 07:24:00 AM 60.6788 8.5456 283° West  Level Estimated
Tue 07:25:00 AM 60.7041 8.3111 283° West  Level Estimated
Tue 07:26:00 AM 60.7290 8.0763 282° West  Level Estimated
Tue 07:27:00 AM 60.7535 7.8411 282° West  Level Estimated
Tue 07:27:28 AM 60.6339 7.6226 282° West 443 510 36,000  Level FlightAware ADS-B
Tue 07:28:00 AM 60.6475 7.4928 282° West 440 506 36,000  Level FlightAware ADS-B
Tue 07:28:40 AM 60.6643 7.3330 282° West 437 503 36,000  Level FlightAware ADS-B
Tue 07:29:20 AM 60.6809 7.1718 282° West 437 503 36,000  Level FlightAware ADS-B
Tue 07:29:50 AM 60.6932 7.0516 282° West 436 502 36,000  Level FlightAware ADS-B
Tue 07:30:20 AM 60.7056 6.9290 282° West 436 502 36,000  Level FlightAware ADS-B
Tue 07:31:00 AM 60.7215 6.7687 282° West 438 504 36,000  Level FlightAware ADS-B
Tue 07:31:30 AM 60.7335 6.6488 282° West 438 504 36,000  Level FlightAware ADS-B
Tue 07:32:00 AM 60.7455 6.5271 282° West 438 504 36,000  Level FlightAware ADS-B
Tue 07:32:40 AM 60.7611 6.3661 281° West 435 501 36,000  Level FlightAware ADS-B
Tue 07:33:20 AM 60.7768 6.2015 281° West 441 507 36,000  Level FlightAware ADS-B
Tue 07:33:50 AM 60.7882 6.0809 281° West 443 510 36,000  Level FlightAware ADS-B
Tue 07:34:20 AM 60.7998 5.9561 281° West 441 507 36,000  Level FlightAware ADS-B
Tue 07:35:00 AM 60.8147 5.7951 281° West 438 504 36,000  Level FlightAware ADS-B
Tue 07:35:41 AM 60.8298 5.6294 281° West 438 504 36,000  Level FlightAware ADS-B
Tue 07:38:00 AM 60.8761 5.0785 280° West  Level Estimated
Tue 07:39:00 AM 60.8954 4.8402 280° West  Level Estimated
Tue 07:40:00 AM 60.9143 4.6016 279° West  Level Estimated
Tue 07:41:00 AM 60.9327 4.3627 279° West  Level Estimated
Tue 07:42:00 AM 60.9508 4.1236 279° West  Level Estimated
Tue 07:43:00 AM 60.9684 3.8842 279° West  Level Estimated
Tue 07:44:00 AM 60.9856 3.6445 279° West  Level Estimated
Tue 07:45:00 AM 61.0023 3.4046 278° West  Level Estimated
Tue 07:46:00 AM 61.0187 3.1644 278° West  Level Estimated
Tue 07:47:00 AM 61.0346 2.9240 278° West  Level Estimated
Tue 07:48:00 AM 61.0500 2.6833 278° West  Level Estimated
Tue 07:49:00 AM 61.0651 2.4424 277° West  Level Estimated
Tue 07:50:00 AM 61.0797 2.2013 277° West  Level Estimated
Tue 07:51:00 AM 61.0939 1.9600 277° West  Level Estimated
Tue 07:52:00 AM 61.1077 1.7184 277° West  Level Estimated
Tue 07:53:00 AM 61.1210 1.4767 277° West  Level Estimated
Tue 07:54:00 AM 61.1339 1.2347 276° West  Level Estimated
Tue 07:55:00 AM 61.1464 0.9926 276° West  Level Estimated
Tue 07:56:00 AM 61.1584 0.7502 276° West  Level Estimated
Tue 07:57:00 AM 61.1700 0.5077 276° West  Level Estimated
Tue 07:58:00 AM 61.1812 0.2650 276° West  Level Estimated
Tue 07:59:00 AM 61.1919 0.0221 275° West  Level Estimated
Tue 08:00:00 AM 61.2022 -0.2209 275° West  Level Estimated
Tue 08:01:00 AM 61.2121 -0.4641 275° West  Level Estimated
Tue 08:02:00 AM 61.2215 -0.7074 275° West  Level Estimated
Tue 08:03:00 AM 61.2305 -0.9509 274° West  Level Estimated
Tue 08:04:00 AM 61.2390 -1.1945 274° West  Level Estimated
Tue 08:05:00 AM 61.2471 -1.4382 274° West  Level Estimated
Tue 08:06:00 AM 61.2548 -1.6821 274° West  Level Estimated
Tue 08:07:00 AM 61.2621 -1.9261 274° West  Level Estimated
Tue 08:08:00 AM 61.2688 -2.1702 273° West  Level Estimated
Tue 08:09:00 AM 61.2752 -2.4144 273° West  Level Estimated
Tue 08:10:00 AM 61.2811 -2.6586 273° West  Level Estimated
Tue 08:11:00 AM 61.2866 -2.9030 273° West  Level Estimated
Tue 08:12:00 AM 61.2917 -3.1474 273° West  Level Estimated
Tue 08:13:00 AM 61.2963 -3.3920 272° West  Level Estimated
Tue 08:14:00 AM 61.3004 -3.6366 272° West  Level Estimated
Tue 08:15:00 AM 61.3042 -3.8812 272° West  Level Estimated
Tue 08:16:00 AM 61.3075 -4.1259 272° West  Level Estimated
Tue 08:17:00 AM 61.3103 -4.3707 271° West  Level Estimated
Tue 08:18:00 AM 61.3127 -4.6155 271° West  Level Estimated
Tue 08:19:00 AM 61.3147 -4.8604 271° West  Level Estimated
Tue 08:20:00 AM 61.3162 -5.1052 271° West  Level Estimated
Tue 08:21:00 AM 61.3173 -5.3501 271° West  Level Estimated
Tue 08:22:00 AM 61.3179 -5.5950 270° West  Level Estimated
Tue 08:23:00 AM 61.3181 -5.8399 270° West  Level Estimated
Tue 08:24:00 AM 61.3179 -6.0848 270° West  Level Estimated
Tue 08:25:00 AM 61.3172 -6.3297 270° West  Level Estimated
Tue 08:26:00 AM 61.3161 -6.5746 270° West  Level Estimated
Tue 08:27:00 AM 61.3145 -6.8194 269° West  Level Estimated
Tue 08:28:00 AM 61.3125 -7.0643 269° West  Level Estimated
Tue 08:29:00 AM 61.3101 -7.3091 269° West  Level Estimated
Tue 08:30:00 AM 61.3072 -7.5538 269° West  Level Estimated
Tue 08:31:00 AM 61.3039 -7.7985 268° West  Level Estimated
Tue 08:32:00 AM 61.3001 -8.0432 268° West  Level Estimated
Tue 08:33:00 AM 61.2959 -8.2878 268° West  Level Estimated
Tue 08:34:00 AM 61.2913 -8.5323 268° West  Level Estimated
Tue 08:35:00 AM 61.2862 -8.7767 268° West  Level Estimated
Tue 08:36:00 AM 61.2807 -9.0211 267° West  Level Estimated
Tue 08:37:00 AM 61.2747 -9.2654 267° West  Level Estimated
Tue 08:38:00 AM 61.2683 -9.5096 267° West  Level Estimated
Tue 08:39:00 AM 61.2615 -9.7536 267° West  Level Estimated
Tue 08:40:00 AM 61.2542 -9.9976 267° West  Level Estimated
Tue 08:41:00 AM 61.2465 -10.2415 266° West  Level Estimated
Tue 08:42:00 AM 61.2383 -10.4852 266° West  Level Estimated
Tue 08:43:00 AM 61.2298 -10.7288 266° West  Level Estimated
Tue 08:44:00 AM 61.2207 -10.9722 266° West  Level Estimated
Tue 08:45:00 AM 61.2113 -11.2156 265° West  Level Estimated
Tue 08:46:00 AM 61.2014 -11.4587 265° West  Level Estimated
Tue 08:47:00 AM 61.1910 -11.7017 265° West  Level Estimated
Tue 08:48:00 AM 61.1803 -11.9446 265° West  Level Estimated
Tue 08:49:00 AM 61.1691 -12.1873 265° West  Level Estimated
Tue 08:50:00 AM 61.1574 -12.4298 264° West  Level Estimated
Tue 08:51:00 AM 61.1454 -12.6721 264° West  Level Estimated
Tue 08:52:00 AM 61.1329 -12.9142 264° West  Level Estimated
Tue 08:53:00 AM 61.1199 -13.1562 264° West  Level Estimated
Tue 08:54:00 AM 61.1066 -13.3979 264° West  Level Estimated
Tue 08:55:00 AM 61.0928 -13.6395 263° West  Level Estimated
Tue 08:56:00 AM 61.0785 -13.8808 263° West  Level Estimated
Tue 08:57:00 AM 61.0639 -14.1219 263° West  Level Estimated
Tue 08:58:00 AM 61.0488 -14.3627 263° West  Level Estimated
Tue 08:59:00 AM 61.0333 -14.6034 263° West  Level Estimated
Tue 09:00:00 AM 61.0173 -14.8438 262° West  Level Estimated
Tue 09:01:00 AM 61.0009 -15.0839 262° West  Level Estimated
Tue 09:02:00 AM 60.9841 -15.3238 262° West  Level Estimated
Tue 09:03:00 AM 60.9669 -15.5635 262° West  Level Estimated
Tue 09:04:00 AM 60.9493 -15.8029 261° West  Level Estimated
Tue 09:05:00 AM 60.9312 -16.0420 261° West  Level Estimated
Tue 09:06:00 AM 60.9127 -16.2808 261° West  Level Estimated
Tue 09:07:00 AM 60.8938 -16.5194 261° West  Level Estimated
Tue 09:08:00 AM 60.8745 -16.7577 261° West  Level Estimated
Tue 09:09:00 AM 60.8547 -16.9956 260° West  Level Estimated
Tue 09:10:00 AM 60.8345 -17.2333 260° West  Level Estimated
Tue 09:11:00 AM 60.8139 -17.4707 260° West  Level Estimated
Tue 09:12:00 AM 60.7929 -17.7078 260° West  Level Estimated
Tue 09:13:00 AM 60.7715 -17.9445 260° West  Level Estimated
Tue 09:14:00 AM 60.7496 -18.1810 259° West  Level Estimated
Tue 09:15:00 AM 60.7273 -18.4171 259° West  Level Estimated
Tue 09:16:00 AM 60.7047 -18.6529 259° West  Level Estimated
Tue 09:17:00 AM 60.6816 -18.8883 259° West  Level Estimated
Tue 09:18:00 AM 60.6581 -19.1235 259° West  Level Estimated
Tue 09:19:00 AM 60.6342 -19.3582 258° West  Level Estimated
Tue 09:20:00 AM 60.6098 -19.5926 258° West  Level Estimated
Tue 09:21:00 AM 60.5851 -19.8267 258° West  Level Estimated
Tue 09:22:00 AM 60.5599 -20.0604 258° West  Level Estimated
Tue 09:23:00 AM 60.5344 -20.2937 258° West  Level Estimated
Tue 09:24:00 AM 60.5084 -20.5267 257° West  Level Estimated
Tue 09:25:00 AM 60.4821 -20.7593 257° West  Level Estimated
Tue 09:26:00 AM 60.4553 -20.9915 257° West  Level Estimated
Tue 09:26:26 AM 61.0000 -20.0000 263° West 430 495 36,000  Level ETMS Enhanced Traffic Management System
Tue 09:27:00 AM 60.4281 -21.2233 257° West  Level Estimated
Tue 09:28:00 AM 60.4006 -21.4547 257° West  Level Estimated
Tue 09:29:00 AM 60.3726 -21.6857 256° West  Level Estimated
Tue 09:30:00 AM 60.3442 -21.9164 256° West  Level Estimated
Tue 09:31:00 AM 60.3154 -22.1466 256° West  Level Estimated
Tue 09:32:00 AM 60.9035 -21.4634 262° West 430 495 36,000  Level FlightAware Transoceanic
Tue 09:33:00 AM 60.8858 -21.7064 261° West 430 495 36,000  Level FlightAware Transoceanic
Tue 09:34:00 AM 60.8678 -21.9492 261° West 430 495 36,000  Level FlightAware Transoceanic
Tue 09:35:00 AM 60.8493 -22.1916 261° West 430 495 36,000  Level FlightAware Transoceanic
Tue 09:36:00 AM 60.8303 -22.4338 261° West 430 495 36,000  Level FlightAware Transoceanic
Tue 09:37:00 AM 60.8110 -22.6757 261° West 430 495 36,000  Level FlightAware Transoceanic
Tue 09:38:00 AM 60.7912 -22.9173 260° West 430 495 36,000  Level FlightAware Transoceanic
Tue 09:39:00 AM 60.7709 -23.1586 260° West 430 495 36,000  Level FlightAware Transoceanic
Tue 09:40:00 AM 60.7503 -23.3995 260° West 430 495 36,000  Level FlightAware Transoceanic
Tue 09:41:00 AM 60.7291 -23.6402 260° West 430 495 36,000  Level FlightAware Transoceanic
Tue 09:42:00 AM 60.7076 -23.8806 260° West 430 495 36,000  Level FlightAware Transoceanic
Tue 09:43:00 AM 60.6856 -24.1206 259° West 430 495 36,000  Level FlightAware Transoceanic
Tue 09:44:00 AM 60.6632 -24.3603 259° West 430 495 36,000  Level FlightAware Transoceanic
Tue 09:45:00 AM 60.6404 -24.5996 259° West 430 495 36,000  Level FlightAware Transoceanic
Tue 09:46:00 AM 60.6172 -24.8386 259° West 430 495 36,000  Level FlightAware Transoceanic
Tue 09:47:00 AM 60.5935 -25.0773 258° West 430 495 36,000  Level FlightAware Transoceanic
Tue 09:48:00 AM 60.5694 -25.3156 258° West 430 495 36,000  Level FlightAware Transoceanic
Tue 09:49:00 AM 60.5449 -25.5536 258° West 430 495 36,000  Level FlightAware Transoceanic
Tue 09:50:00 AM 60.5199 -25.7912 258° West 430 495 36,000  Level FlightAware Transoceanic
Tue 09:51:00 AM 60.4946 -26.0284 258° West 430 495 36,000  Level FlightAware Transoceanic
Tue 09:52:00 AM 60.4688 -26.2653 257° West 430 495 36,000  Level FlightAware Transoceanic
Tue 09:53:00 AM 60.4426 -26.5017 257° West 430 495 36,000  Level FlightAware Transoceanic
Tue 09:54:00 AM 60.4160 -26.7378 257° West 430 495 36,000  Level FlightAware Transoceanic
Tue 09:55:00 AM 60.3889 -26.9735 257° West 430 495 36,000  Level FlightAware Transoceanic
Tue 09:56:00 AM 60.3615 -27.2088 257° West 430 495 36,000  Level FlightAware Transoceanic
Tue 09:57:00 AM 60.3336 -27.4437 256° West 430 495 36,000  Level FlightAware Transoceanic
Tue 09:58:00 AM 60.3053 -27.6782 256° West 430 495 36,000  Level FlightAware Transoceanic
Tue 09:59:00 AM 60.2766 -27.9123 256° West 430 495 36,000  Level FlightAware Transoceanic
Tue 10:00:00 AM 60.2475 -28.1460 256° West 430 495 36,000  Level FlightAware Transoceanic
Tue 10:01:00 AM 60.2180 -28.3792 256° West 430 495 36,000  Level FlightAware Transoceanic
Tue 10:02:00 AM 60.1881 -28.6121 255° West 430 495 36,000  Level FlightAware Transoceanic
Tue 10:03:00 AM 60.1577 -28.8445 255° West 430 495 36,000  Level FlightAware Transoceanic
Tue 10:04:00 AM 60.1270 -29.0765 255° West 430 495 36,000  Level FlightAware Transoceanic
Tue 10:05:00 AM 60.0959 -29.3080 255° West 430 495 36,000  Level FlightAware Transoceanic
Tue 10:06:00 AM 60.0643 -29.5391 255° West 430 495 36,000  Level FlightAware Transoceanic
Tue 10:07:00 AM 60.0323 -29.7698 254° West 430 495 36,000  Level FlightAware Transoceanic
Tue 10:08:00 AM 59.9890 -29.9884 248° West  Level Estimated
Tue 10:09:00 AM 59.9453 -30.2064 248° West  Level Estimated
Tue 10:10:00 AM 59.9012 -30.4238 248° West  Level Estimated
Tue 10:11:00 AM 59.8568 -30.6407 248° West  Level Estimated
Tue 10:12:00 AM 59.8121 -30.8570 248° West  Level Estimated
Tue 10:13:00 AM 59.7669 -31.0727 248° West  Level Estimated
Tue 10:14:00 AM 59.7215 -31.2878 247° West  Level Estimated
Tue 10:15:00 AM 59.6756 -31.5023 247° West  Level Estimated
Tue 10:16:00 AM 59.6294 -31.7162 247° West  Level Estimated
Tue 10:17:00 AM 59.5829 -31.9296 247° West  Level Estimated
Tue 10:18:00 AM 59.5360 -32.1423 247° West  Level Estimated
Tue 10:19:00 AM 59.4888 -32.3545 246° West  Level Estimated
Tue 10:20:00 AM 59.4413 -32.5661 246° West  Level Estimated
Tue 10:21:00 AM 59.3934 -32.7771 246° West  Level Estimated
Tue 10:22:00 AM 59.3451 -32.9874 246° West  Level Estimated
Tue 10:23:00 AM 59.2965 -33.1972 246° West  Level Estimated
Tue 10:24:00 AM 59.2476 -33.4064 245° Southwest  Level Estimated
Tue 10:25:00 AM 59.1984 -33.6149 245° Southwest  Level Estimated
Tue 10:26:00 AM 59.1488 -33.8229 245° Southwest  Level Estimated
Tue 10:27:00 AM 59.0989 -34.0303 245° Southwest  Level Estimated
Tue 10:28:00 AM 59.0486 -34.2370 245° Southwest  Level Estimated
Tue 10:29:00 AM 58.9981 -34.4432 245° Southwest  Level Estimated
Tue 10:30:00 AM 58.9472 -34.6487 244° Southwest  Level Estimated
Tue 10:31:00 AM 58.8960 -34.8537 244° Southwest  Level Estimated
Tue 10:32:00 AM 58.8444 -35.0580 244° Southwest  Level Estimated
Tue 10:33:00 AM 58.7925 -35.2617 244° Southwest  Level Estimated
Tue 10:34:00 AM 58.7403 -35.4648 244° Southwest  Level Estimated
Tue 10:35:00 AM 58.6878 -35.6673 244° Southwest  Level Estimated
Tue 10:36:00 AM 58.6350 -35.8692 243° Southwest  Level Estimated
Tue 10:37:00 AM 58.5819 -36.0705 243° Southwest  Level Estimated
Tue 10:38:00 AM 58.5284 -36.2712 243° Southwest  Level Estimated
Tue 10:39:00 AM 58.4747 -36.4712 243° Southwest  Level Estimated
Tue 10:40:00 AM 58.4206 -36.6707 243° Southwest  Level Estimated
Tue 10:41:00 AM 58.3662 -36.8695 243° Southwest  Level Estimated
Tue 10:42:00 AM 58.3115 -37.0677 242° Southwest  Level Estimated
Tue 10:43:00 AM 58.2565 -37.2653 242° Southwest  Level Estimated
Tue 10:44:00 AM 58.2012 -37.4623 242° Southwest  Level Estimated
Tue 10:45:00 AM 58.1456 -37.6587 242° Southwest  Level Estimated
Tue 10:46:00 AM 58.0897 -37.8545 242° Southwest  Level Estimated
Tue 10:47:00 AM 58.0335 -38.0496 242° Southwest  Level Estimated
Tue 10:48:00 AM 57.9770 -38.2441 241° Southwest  Level Estimated
Tue 10:49:00 AM 57.9202 -38.4381 241° Southwest  Level Estimated
Tue 10:50:00 AM 57.8631 -38.6314 241° Southwest  Level Estimated
Tue 10:51:00 AM 57.8058 -38.8241 241° Southwest  Level Estimated
Tue 10:52:00 AM 57.7481 -39.0161 241° Southwest  Level Estimated
Tue 10:53:00 AM 57.6901 -39.2076 241° Southwest  Level Estimated
Tue 10:54:00 AM 57.6319 -39.3984 240° Southwest  Level Estimated
Tue 10:55:00 AM 57.5733 -39.5887 240° Southwest  Level Estimated
Tue 10:56:00 AM 57.5145 -39.7783 240° Southwest  Level Estimated
Tue 10:57:00 AM 57.4554 -39.9673 240° Southwest  Level Estimated
Tue 10:58:00 AM 57.3960 -40.1557 240° Southwest  Level Estimated
Tue 10:59:00 AM 57.3363 -40.3435 240° Southwest  Level Estimated
Tue 11:00:00 AM 57.2764 -40.5307 239° Southwest  Level Estimated
Tue 11:01:00 AM 57.2162 -40.7173 239° Southwest  Level Estimated
Tue 11:02:00 AM 57.1557 -40.9032 239° Southwest  Level Estimated
Tue 11:03:00 AM 57.0949 -41.0886 239° Southwest  Level Estimated
Tue 11:04:00 AM 57.0339 -41.2733 239° Southwest  Level Estimated
Tue 11:05:00 AM 56.9725 -41.4575 239° Southwest  Level Estimated
Tue 11:06:00 AM 56.9109 -41.6410 238° Southwest  Level Estimated
Tue 11:07:00 AM 56.8491 -41.8239 238° Southwest  Level Estimated
Tue 11:08:00 AM 56.7870 -42.0062 238° Southwest  Level Estimated
Tue 11:09:00 AM 56.7246 -42.1880 238° Southwest  Level Estimated
Tue 11:10:00 AM 56.6619 -42.3691 238° Southwest  Level Estimated
Tue 11:11:00 AM 56.5990 -42.5496 238° Southwest  Level Estimated
Tue 11:12:00 AM 56.5359 -42.7295 238° Southwest  Level Estimated
Tue 11:13:00 AM 56.4724 -42.9088 237° Southwest  Level Estimated
Tue 11:14:00 AM 56.4087 -43.0875 237° Southwest  Level Estimated
Tue 11:15:00 AM 56.3448 -43.2656 237° Southwest  Level Estimated
Tue 11:16:00 AM 56.2806 -43.4431 237° Southwest  Level Estimated
Tue 11:17:00 AM 56.2161 -43.6200 237° Southwest  Level Estimated
Tue 11:18:00 AM 56.1514 -43.7964 237° Southwest  Level Estimated
Tue 11:19:00 AM 56.0865 -43.9721 237° Southwest  Level Estimated
Tue 11:20:00 AM 56.0213 -44.1472 236° Southwest  Level Estimated
Tue 11:21:00 AM 55.9558 -44.3218 236° Southwest  Level Estimated
Tue 11:22:00 AM 55.8901 -44.4957 236° Southwest  Level Estimated
Tue 11:23:00 AM 55.8242 -44.6691 236° Southwest  Level Estimated
Tue 11:24:00 AM 55.7580 -44.8419 236° Southwest  Level Estimated
Tue 11:25:00 AM 55.6916 -45.0141 236° Southwest  Level Estimated
Tue 11:26:00 AM 55.6249 -45.1857 236° Southwest  Level Estimated
Tue 11:27:00 AM 55.5580 -45.3567 235° Southwest  Level Estimated
Tue 11:28:00 AM 55.4908 -45.5271 235° Southwest  Level Estimated
Tue 11:29:00 AM 55.4235 -45.6970 235° Southwest  Level Estimated
Tue 11:30:00 AM 55.3559 -45.8663 235° Southwest  Level Estimated
Tue 11:31:00 AM 55.2880 -46.0350 235° Southwest  Level Estimated
Tue 11:32:00 AM 55.2199 -46.2031 235° Southwest  Level Estimated
Tue 11:33:00 AM 55.1516 -46.3706 235° Southwest  Level Estimated
Tue 11:34:00 AM 55.0831 -46.5376 234° Southwest  Level Estimated
Tue 11:35:00 AM 55.0143 -46.7040 234° Southwest  Level Estimated
Tue 11:36:00 AM 54.9453 -46.8698 234° Southwest  Level Estimated
Tue 11:37:00 AM 54.8761 -47.0351 234° Southwest  Level Estimated
Tue 11:38:00 AM 54.8067 -47.1998 234° Southwest  Level Estimated
Tue 11:39:00 AM 54.7370 -47.3639 234° Southwest  Level Estimated
Tue 11:40:00 AM 54.6671 -47.5275 234° Southwest  Level Estimated
Tue 11:41:00 AM 54.5970 -47.6905 233° Southwest  Level Estimated
Tue 11:42:00 AM 54.5267 -47.8529 233° Southwest  Level Estimated
Tue 11:43:00 AM 54.4562 -48.0148 233° Southwest  Level Estimated
Tue 11:44:00 AM 54.3854 -48.1761 233° Southwest  Level Estimated
Tue 11:45:00 AM 54.3144 -48.3369 233° Southwest  Level Estimated
Tue 11:46:00 AM 54.2433 -48.4971 233° Southwest  Level Estimated
Tue 11:47:00 AM 54.1719 -48.6567 233° Southwest  Level Estimated
Tue 11:48:00 AM 54.1003 -48.8159 233° Southwest  Level Estimated
Tue 11:49:00 AM 54.0285 -48.9744 232° Southwest  Level Estimated
Tue 11:50:00 AM 53.9565 -49.1324 232° Southwest  Level Estimated
Tue 11:51:00 AM 53.8842 -49.2899 232° Southwest  Level Estimated
Tue 11:52:00 AM 53.8118 -49.4468 232° Southwest  Level Estimated
Tue 11:53:00 AM 53.7392 -49.6032 232° Southwest  Level Estimated
Tue 11:54:00 AM 53.6663 -49.7590 232° Southwest  Level Estimated
Tue 11:55:00 AM 53.5933 -49.9143 232° Southwest  Level Estimated
Tue 11:56:00 AM 53.5200 -50.0691 232° Southwest  Level Estimated
Tue 11:57:00 AM 53.4466 -50.2233 231° Southwest  Level Estimated
Tue 11:58:00 AM 53.3730 -50.3770 231° Southwest  Level Estimated
Tue 11:59:00 AM 53.2991 -50.5302 231° Southwest  Level Estimated
Tue 12:00:00 PM 53.2251 -50.6828 231° Southwest  Level Estimated
Tue 12:01:00 PM 53.1509 -50.8349 231° Southwest  Level Estimated
Tue 12:01:50 PM 57.0333 -54.9833 230° Southwest 370 426 36,000  Level Gander Center
Tue 12:02:00 PM 53.0765 -50.9865 231° Southwest  Level Estimated
Tue 12:02:50 PM 56.9833 -55.1167 236° Southwest 370 426 36,000  Level Gander Center
Tue 12:03:00 PM 53.0019 -51.1376 231° Southwest  Level Estimated
Tue 12:03:50 PM 56.9500 -55.3167 253° West 360 414 36,000  Level Gander Center
Tue 12:04:00 PM 52.9271 -51.2881 231° Southwest  Level Estimated
Tue 12:04:50 PM 56.9167 -55.5000 252° West 380 437 36,000  Level Gander Center
Tue 12:05:00 PM 52.8516 -51.4390 230° Southwest  Level Estimated
Tue 12:05:50 PM 56.8833 -55.6833 252° West 370 426 36,000  Level Gander Center
Tue 12:06:00 PM 52.7760 -51.5895 230° Southwest  Level Estimated
Tue 12:06:50 PM 56.8333 -55.8167 236° Southwest 370 426 36,000  Level Gander Center
Tue 12:07:00 PM 52.7002 -51.7393 230° Southwest  Level Estimated
Tue 12:07:50 PM 56.8000 -56.0333 254° West 370 426 36,000  Level Gander Center
Tue 12:08:50 PM 56.7667 -56.1667 246° West 360 414 36,000  Level Gander Center
Tue 12:09:50 PM 56.7167 -56.2667 228° Southwest 320 368 36,000  Level Gander Center
Tue 12:10:50 PM 56.6667 -56.5167 250° West 370 426 36,000  Level Gander Center
Tue 12:11:50 PM 56.5833 -56.6167 213° Southwest 350 403 36,000  Level Gander Center
Tue 12:12:50 PM 56.5167 -56.7333 224° Southwest 350 403 36,000  Level Gander Center
Tue 12:13:50 PM 56.4500 -56.8333 220° Southwest 350 403 36,000  Level Gander Center
Tue 12:14:50 PM 56.3667 -56.9333 214° Southwest 340 391 36,000  Level Gander Center
Tue 12:15:50 PM 56.3000 -57.0667 228° Southwest 340 391 36,000  Level Gander Center
Tue 12:16:50 PM 56.2167 -57.1667 214° Southwest 340 391 36,000  Level Gander Center
Tue 12:17:50 PM 56.1333 -57.3000 222° Southwest 340 391 36,000  Level Gander Center
Tue 12:18:26 PM 56.1000 -57.3333 209° Southwest 340 391 36,000  Level Moncton Center
Tue 12:19:26 PM 56.0167 -57.4667 222° Southwest 340 391 36,000  Level Moncton Center
Tue 12:20:26 PM 55.9667 -57.5667 228° Southwest 340 391 36,000  Level Moncton Center
Tue 12:21:26 PM 55.8833 -57.6667 214° Southwest 340 391 36,000  Level Moncton Center
Tue 12:22:26 PM 55.8000 -57.7667 214° Southwest 340 391 36,000  Level Moncton Center
Tue 12:23:26 PM 55.7333 -57.8667 220° Southwest 340 391 36,000  Level Moncton Center
Tue 12:24:26 PM 55.6667 -57.9667 220° Southwest 340 391 36,000  Level Moncton Center
Tue 12:25:26 PM 55.5833 -58.0667 214° Southwest 340 391 36,000  Level Moncton Center
Tue 12:26:26 PM 55.5167 -58.2000 229° Southwest 340 391 36,000  Level Moncton Center
Tue 12:27:26 PM 55.4500 -58.3000 220° Southwest 340 391 36,000  Level Moncton Center
Tue 12:28:25 PM 55.3667 -58.4000 214° Southwest 340 391 36,000  Level Gander Center
Tue 12:29:25 PM 55.2833 -58.5000 214° Southwest 350 403 36,000  Level Gander Center
Tue 12:30:50 PM 55.1667 -58.6500 216° Southwest 350 403 36,000  Level Gander Center
Tue 12:31:50 PM 55.1167 -58.7667 233° Southwest 360 414 36,000  Level Gander Center
Tue 12:32:50 PM 55.0333 -58.8667 215° Southwest 360 414 36,000  Level Gander Center
Tue 12:33:50 PM 54.9500 -58.9833 219° Southwest 360 414 36,000  Level Gander Center
Tue 12:34:50 PM 54.8667 -59.0833 215° Southwest 360 414 36,000  Level Gander Center
Tue 12:35:50 PM 54.7833 -59.2000 219° Southwest 360 414 36,000  Level Gander Center
Tue 12:36:50 PM 54.7000 -59.2833 210° Southwest 360 414 36,000  Level Gander Center
Tue 12:37:50 PM 54.6167 -59.4000 219° Southwest 360 414 36,000  Level Gander Center
Tue 12:38:50 PM 54.5500 -59.5000 221° Southwest 360 414 36,000  Level Gander Center
Tue 12:39:50 PM 54.4667 -59.6167 219° Southwest 370 426 36,000  Level Gander Center
Tue 12:40:50 PM 54.3833 -59.7333 219° Southwest 370 426 36,000  Level Gander Center
Tue 12:41:26 PM 54.3167 -59.7833 204° Southwest 370 426 36,000  Level Moncton Center
Tue 12:42:26 PM 54.2667 -59.8833 229° Southwest 370 426 36,000  Level Moncton Center
Tue 12:43:26 PM 54.1833 -60.0000 219° Southwest 370 426 36,000  Level Moncton Center
Tue 12:44:26 PM 54.0833 -60.1000 210° Southwest 360 414 36,000  Level Moncton Center
Tue 12:45:26 PM 54.0000 -60.1833 210° Southwest 370 426 36,000  Level Moncton Center
Tue 12:46:26 PM 53.9167 -60.3167 223° Southwest 360 414 36,000  Level Moncton Center
Tue 12:47:26 PM 53.8500 -60.4000 216° Southwest 360 414 36,000  Level Moncton Center
Tue 12:48:26 PM 53.7667 -60.5167 220° Southwest 360 414 36,000  Level Moncton Center
Tue 12:49:26 PM 53.6833 -60.6167 215° Southwest 370 426 36,000  Level Moncton Center
Tue 12:50:26 PM 53.6000 -60.7000 211° Southwest 370 426 36,000  Level Moncton Center
Tue 12:51:26 PM 53.5167 -60.8333 224° Southwest 370 426 36,000  Level Moncton Center
Tue 12:52:26 PM 53.4333 -60.9167 211° Southwest 370 426 36,000  Level Moncton Center
Tue 12:53:26 PM 53.3667 -61.0333 226° Southwest 370 426 36,000  Level Moncton Center
Tue 12:54:26 PM 53.2667 -61.1333 211° Southwest 380 437 36,000  Level Moncton Center
Tue 12:55:26 PM 53.1833 -61.2500 220° Southwest 380 437 36,000  Level Moncton Center
Tue 12:56:26 PM 53.1000 -61.3333 211° Southwest 370 426 36,000  Level Moncton Center
Tue 12:57:26 PM 53.0167 -61.4167 211° Southwest 370 426 36,000  Level Moncton Center
Tue 12:58:26 PM 52.9333 -61.5333 220° Southwest 380 437 36,000  Level Moncton Center
Tue 12:59:26 PM 52.8333 -61.6333 211° Southwest 380 437 36,000  Level Moncton Center
Tue 01:00:26 PM 52.7667 -61.7500 227° Southwest 380 437 36,000  Level Moncton Center
Tue 01:01:26 PM 52.6833 -61.8667 220° Southwest 380 437 36,000  Level Moncton Center
Tue 01:02:26 PM 52.5833 -61.9500 207° Southwest 380 437 36,000  Level Moncton Center
Tue 01:03:26 PM 52.5000 -62.0667 220° Southwest 380 437 36,000  Level Moncton Center
Tue 01:04:26 PM 52.4167 -62.1500 211° Southwest 380 437 36,000  Level Moncton Center
Tue 01:05:26 PM 52.3167 -62.2667 216° Southwest 380 437 36,000  Level Moncton Center
Tue 01:06:26 PM 52.2333 -62.3500 211° Southwest 390 449 36,000  Level Moncton Center
Tue 01:07:26 PM 52.1500 -62.4667 221° Southwest 380 437 36,000  Level Moncton Center
Tue 01:08:26 PM 52.0667 -62.5500 212° Southwest 380 437 36,000  Level Moncton Center
Tue 01:09:26 PM 51.9667 -62.6667 216° Southwest 380 437 36,000  Level Moncton Center
Tue 01:10:26 PM 51.8833 -62.7500 212° Southwest 390 449 36,000 300 Level Moncton Center
Tue 01:11:26 PM 51.8000 -62.8500 217° Southwest 390 449 36,600 800 Climbing Moncton Center
Tue 01:12:26 PM 51.7000 -62.9333 207° Southwest 390 449 37,600 700 Climbing Moncton Center
Tue 01:13:26 PM 51.6333 -63.0500 227° Southwest 390 449 38,000 200 Climbing Moncton Center
Tue 01:14:26 PM 51.5333 -63.1667 216° Southwest 400 460 38,000  Level Moncton Center
Tue 01:15:26 PM 51.4500 -63.2500 212° Southwest 390 449 38,000  Level Moncton Center
Tue 01:16:26 PM 51.3500 -63.3500 212° Southwest 400 460 38,000  Level Moncton Center
Tue 01:17:26 PM 51.2667 -63.4667 221° Southwest 390 449 38,000  Level Moncton Center
Tue 01:18:26 PM 51.1667 -63.5500 208° Southwest 400 460 38,000  Level Moncton Center
Tue 01:19:26 PM 51.0667 -63.6500 212° Southwest 400 460 38,000  Level Moncton Center
Tue 01:20:26 PM 50.9833 -63.7667 221° Southwest 400 460 38,000  Level Moncton Center
Tue 01:21:26 PM 50.8833 -63.8667 212° Southwest 400 460 38,000  Level Moncton Center
Tue 01:22:26 PM 50.8000 -63.9500 212° Southwest 400 460 38,000  Level Moncton Center
Tue 01:23:26 PM 50.7000 -64.0500 212° Southwest 400 460 38,000  Level Moncton Center
Tue 01:24:26 PM 50.6167 -64.1333 212° Southwest 400 460 38,000  Level Moncton Center
Tue 01:25:26 PM 50.5167 -64.2333 212° Southwest 400 460 38,000  Level Moncton Center
Tue 01:26:26 PM 50.4333 -64.3500 222° Southwest 400 460 38,000  Level Moncton Center
Tue 01:27:26 PM 50.3333 -64.4167 203° Southwest 400 460 38,000  Level Moncton Center
Tue 01:28:26 PM 50.2333 -64.5333 217° Southwest 400 460 38,000  Level Moncton Center
Tue 01:29:26 PM 50.1500 -64.6333 218° Southwest 400 460 38,000  Level Moncton Center
Tue 01:30:26 PM 50.0500 -64.7333 213° Southwest 410 472 38,000  Level Moncton Center
Tue 01:31:26 PM 49.9500 -64.8333 213° Southwest 410 472 38,000  Level Moncton Center
Tue 01:32:26 PM 49.8500 -64.9167 208° Southwest 410 472 38,000  Level Moncton Center
Tue 01:33:26 PM 49.7500 -65.0167 213° Southwest 410 472 38,000  Level Moncton Center
Tue 01:34:26 PM 49.6500 -65.1167 213° Southwest 410 472 38,000  Level Moncton Center
Tue 01:35:26 PM 49.5500 -65.2167 213° Southwest 410 472 38,000  Level Moncton Center
Tue 01:36:26 PM 49.4667 -65.3000 213° Southwest 410 472 38,000  Level Moncton Center
Tue 01:37:26 PM 49.3667 -65.4000 213° Southwest 420 483 38,000  Level Moncton Center
Tue 01:38:26 PM 49.2667 -65.5000 213° Southwest 410 472 38,000  Level Moncton Center
Tue 01:39:26 PM 49.1833 -65.6000 218° Southwest 410 472 38,000  Level Moncton Center
Tue 01:40:26 PM 49.0833 -65.7000 213° Southwest 420 483 38,000  Level Moncton Center
Tue 01:41:26 PM 48.9833 -65.8000 213° Southwest 420 483 38,000  Level Moncton Center
Tue 01:42:26 PM 48.8833 -65.9000 213° Southwest 420 483 38,000  Level Moncton Center
Tue 01:43:26 PM 48.7833 -65.9667 204° Southwest 420 483 38,000  Level Moncton Center
Tue 01:44:26 PM 48.6833 -66.0667 213° Southwest 420 483 38,000  Level Moncton Center
Tue 01:45:26 PM 48.5667 -66.1667 210° Southwest 420 483 38,000  Level Moncton Center
Tue 01:46:26 PM 48.4833 -66.2667 219° Southwest 430 495 38,000  Level Moncton Center
Tue 01:47:26 PM 48.3667 -66.3667 210° Southwest 430 495 38,000  Level Moncton Center
Tue 01:48:26 PM 48.2833 -66.4667 219° Southwest 430 495 38,000  Level Moncton Center
Tue 01:49:26 PM 48.1833 -66.5500 209° Southwest 440 506 38,000  Level Moncton Center
Tue 01:50:26 PM 48.0667 -66.6500 210° Southwest 430 495 38,000  Level Moncton Center
Tue 01:51:26 PM 47.9833 -66.7500 219° Southwest 430 495 38,000  Level Moncton Center
Tue 01:52:26 PM 47.8500 -66.8500 207° Southwest 440 506 38,000  Level Moncton Center
Tue 01:53:26 PM 47.7667 -66.9333 214° Southwest 430 495 38,000  Level Moncton Center
Tue 01:54:26 PM 47.6667 -67.0333 214° Southwest 440 506 38,000  Level Moncton Center
Tue 01:55:26 PM 47.5500 -67.1333 210° Southwest 440 506 38,000  Level Moncton Center
Tue 01:56:26 PM 47.4500 -67.2167 209° Southwest 430 495 38,000  Level Moncton Center
Tue 01:57:26 PM 47.3500 -67.3167 214° Southwest 440 506 38,000  Level Moncton Center
Tue 01:58:26 PM 47.2500 -67.4333 218° Southwest 430 495 38,000  Level Moncton Center
Tue 01:59:26 PM 47.1667 -67.5500 224° Southwest 430 495 38,000  Level Moncton Center
Tue 01:59:58 PM 47.1544 -67.5964 249° West 433 498 38,000  Level Boston Center
Tue 02:00:59 PM 47.0653 -67.7136 222° Southwest 433 498 38,000  Level Boston Center
Tue 02:01:59 PM 46.9769 -67.8319 222° Southwest 433 498 38,000  Level Boston Center
Tue 02:03:00 PM 46.8700 -67.9689 221° Southwest 429 494 38,000  Level Boston Center
Tue 02:04:02 PM 46.7842 -68.0783 221° Southwest 424 488 38,000  Level Boston Center
Tue 02:05:02 PM 46.6811 -68.1650 210° Southwest 426 490 38,000  Level Boston Center
Tue 02:10:38 PM 46.0888 -68.6439 210° Southwest 445 512 38,000  Level FlightAware ADS-B
Tue 02:11:51 PM 45.9569 -68.7592 211° Southwest 440 506 38,000  Level FlightAware ADS-B
Tue 02:13:37 PM 45.7700 -68.9190 211° Southwest 438 504 38,000  Level FlightAware ADS-B
Tue 02:14:07 PM 45.7177 -68.9637 211° Southwest 438 504 38,000  Level FlightAware ADS-B
Tue 02:15:09 PM 45.6159 -69.0503 211° Southwest 440 506 38,000  Level FlightAware ADS-B
Tue 02:15:41 PM 45.5887 -69.0734 211° Southwest 439 505 38,000  Level FlightAware ADS-B
Tue 02:16:32 PM 45.4786 -69.1664 211° Southwest 442 509 38,000  Level FlightAware ADS-B
Tue 02:17:03 PM 45.4106 -69.2237 211° Southwest 444 511 38,000  Level FlightAware ADS-B
Tue 02:17:41 PM 45.3531 -69.2719 211° Southwest 443 510 38,000  Level FlightAware ADS-B
Tue 02:18:25 PM 45.2642 -69.3461 210° Southwest 443 510 38,000  Level FlightAware ADS-B
Tue 02:18:56 PM 45.2253 -69.3786 210° Southwest 441 507 38,000  Level FlightAware ADS-B
Tue 02:19:29 PM 45.1604 -69.4325 210° Southwest 441 507 38,000  Level FlightAware ADS-B
Tue 02:20:09 PM 45.0822 -69.4976 210° Southwest 441 507 38,000  Level FlightAware ADS-B
Tue 02:20:16 PM 45.0650 -69.5118 210° Southwest 441 507 38,000  Level FlightAware ADS-B (EGHI / SOU)
Tue 02:21:03 PM 44.9889 -69.5750 210° Southwest 443 510 38,000  Level FlightAware ADS-B
Tue 02:21:34 PM 44.9433 -69.6126 210° Southwest 444 511 38,000  Level FlightAware ADS-B
Tue 02:22:07 PM 44.9347 -69.6197 210° Southwest 441 507 38,000  Level FlightAware ADS-B (EGHI / SOU)
Tue 02:22:42 PM 44.9347 -69.6197 210° Southwest 440 506 38,000  Level FlightAware ADS-B (EGHI / SOU)
Tue 02:23:34 PM 44.8000 -69.7304 210° Southwest 440 506 38,000  Level FlightAware ADS-B (EGHI / SOU)
Tue 02:24:15 PM 44.6523 -69.8511 210° Southwest 441 507 38,000  Level FlightAware ADS-B
Tue 02:24:52 PM 44.5774 -69.9121 210° Southwest 443 510 38,000  Level FlightAware ADS-B (EGHI / SOU)
Tue 02:25:23 PM 44.5275 -69.9526 210° Southwest 444 511 38,000  Level FlightAware ADS-B (EGHI / SOU)
Tue 02:25:56 PM 44.4705 -69.9987 210° Southwest 442 509 38,000  Level FlightAware ADS-B
Tue 02:26:26 PM 44.4705 -69.9987 210° Southwest 444 511 38,000  Level FlightAware ADS-B
Tue 02:27:04 PM 44.3428 -70.1017 210° Southwest 444 511 38,000  Level FlightAware ADS-B (EGHI / SOU)
Tue 02:27:36 PM 44.2920 -70.1424 210° Southwest 443 510 38,000  Level FlightAware ADS-B
Tue 02:28:14 PM 44.2213 -70.1991 210° Southwest 443 510 38,000  Level FlightAware ADS-B (EGHI / SOU)
Tue 02:28:52 PM 44.1581 -70.2496 210° Southwest 443 510 38,000  Level FlightAware ADS-B (EGHI / SOU)
Tue 02:29:23 PM 44.0956 -70.2996 210° Southwest 444 511 38,000  Level FlightAware ADS-B (EGHI / SOU)
Tue 02:30:04 PM 44.0238 -70.3568 210° Southwest 445 512 38,000  Level FlightAware ADS-B (EGHI / SOU)
Tue 02:30:38 PM 43.9702 -70.3993 210° Southwest 444 511 38,000  Level FlightAware ADS-B
Tue 02:31:12 PM 43.9171 -70.4414 210° Southwest 443 510 38,000  Level FlightAware ADS-B (EGHI / SOU)
Tue 02:31:50 PM 43.8419 -70.5007 210° Southwest 444 511 38,000  Level FlightAware ADS-B
Tue 02:32:20 PM 43.7886 -70.5427 210° Southwest 446 513 38,000  Level FlightAware ADS-B
Tue 02:32:59 PM 43.7192 -70.5972 210° Southwest 442 509 38,000  Level FlightAware ADS-B
Tue 02:33:32 PM 43.6604 -70.6434 210° Southwest 444 511 38,000  Level FlightAware ADS-B
Tue 02:34:02 PM 43.6053 -70.6867 210° Southwest 444 511 38,000  Level FlightAware ADS-B
Tue 02:34:34 PM 43.5496 -70.7300 209° Southwest 446 513 38,000  Level FlightAware ADS-B
Tue 02:35:09 PM 43.4864 -70.7793 209° Southwest 448 516 38,000  Level FlightAware ADS-B
Tue 02:35:47 PM 43.4176 -70.8327 209° Southwest 451 519 38,000  Level FlightAware ADS-B
Tue 02:36:17 PM 43.3623 -70.8757 209° Southwest 444 511 38,000  Level FlightAware ADS-B
Tue 02:36:29 PM 43.3415 -70.8918 209° Southwest 443 510 38,000  Level FlightAware ADS-B
Tue 02:36:38 PM 43.3237 -70.9056 209° Southwest 444 511 38,000  Level FlightAware ADS-B
Tue 02:36:48 PM 43.3063 -70.9190 209° Southwest 444 511 38,000  Level FlightAware ADS-B
Tue 02:37:19 PM 43.2509 -70.9615 209° Southwest 444 511 38,000  Level FlightAware ADS-B
Tue 02:37:54 PM 43.1886 -71.0095 209° Southwest 439 505 38,000  Level FlightAware ADS-B
Tue 02:38:28 PM 43.1279 -71.0564 209° Southwest 426 490 38,000  Level FlightAware ADS-B
Tue 02:38:37 PM 43.1145 -71.0668 209° Southwest 423 487 38,000  Level FlightAware ADS-B
Tue 02:39:15 PM 43.0493 -71.1164 209° Southwest 424 488 38,000  Level FlightAware ADS-B
Tue 02:39:48 PM 42.9913 -71.1607 209° Southwest 421 484 38,000  Level FlightAware ADS-B
Tue 02:40:20 PM 42.9377 -71.2017 209° Southwest 422 486 38,000  Level FlightAware ADS-B
Tue 02:40:55 PM 42.8790 -71.2465 209° Southwest 421 484 38,000  Level FlightAware ADS-B
Tue 02:41:27 PM 42.8238 -71.2884 209° Southwest 421 484 38,000  Level FlightAware ADS-B
Tue 02:41:57 PM 42.7725 -71.3273 209° Southwest 425 489 38,000  Level FlightAware ADS-B
Tue 02:42:27 PM 42.7207 -71.3666 209° Southwest 428 493 38,000  Level FlightAware ADS-B
Tue 02:42:47 PM 42.6946 -71.3872 210° Southwest 424 488 38,000  Level FlightAware ADS-B
Tue 02:43:17 PM 42.6376 -71.4354 212° Southwest 424 488 38,000  Level FlightAware ADS-B (KSNC)
Tue 02:43:50 PM 42.5844 -71.4800 212° Southwest 423 487 38,000  Level FlightAware ADS-B
Tue 02:44:00 PM 42.5705 -71.4915 211° Southwest 424 488 38,000  Level FlightAware ADS-B
Tue 02:44:20 PM 42.5334 -71.5219 211° Southwest 422 486 38,000  Level FlightAware ADS-B
Tue 02:44:49 PM 42.4843 -71.5620 211° Southwest 414 476 38,000  Level FlightAware ADS-B
Tue 02:45:19 PM 42.4338 -71.6033 211° Southwest 417 480 38,000  Level FlightAware ADS-B
Tue 02:45:50 PM 42.3830 -71.6448 211° Southwest 419 482 38,000  Level FlightAware ADS-B
Tue 02:46:00 PM 42.3668 -71.6580 211° Southwest 420 483 38,000  Level FlightAware ADS-B
Tue 02:46:30 PM 42.3171 -71.6984 211° Southwest 414 476 38,000  Level FlightAware ADS-B
Tue 02:46:48 PM 42.2882 -71.7220 211° Southwest 422 486 38,000  Level FlightAware ADS-B
Tue 02:47:20 PM 42.2329 -71.7669 211° Southwest 417 480 38,000  Level FlightAware ADS-B
Tue 02:47:29 PM 42.2168 -71.7800 211° Southwest 417 480 38,000  Level FlightAware ADS-B
Tue 02:47:40 PM 42.1992 -71.7942 211° Southwest 418 481 38,000  Level FlightAware ADS-B
Tue 02:47:50 PM 42.1831 -71.8073 211° Southwest 425 489 38,000  Level FlightAware ADS-B
Tue 02:47:59 PM 42.1669 -71.8204 211° Southwest 419 482 38,000  Level FlightAware ADS-B
Tue 02:48:07 PM 42.1630 -71.8236 211° Southwest 426 490 38,000  Level FlightAware ADS-B
Tue 02:48:19 PM 42.1330 -71.8478 211° Southwest 420 483 38,000  Level FlightAware ADS-B
Tue 02:48:50 PM 42.0954 -71.8782 211° Southwest 429 494 38,000  Level FlightAware ADS-B (KSNC)
Tue 02:49:24 PM 42.0216 -71.9376 211° Southwest 432 497 38,000  Level FlightAware ADS-B
Tue 02:49:58 PM 41.9658 -71.9827 211° Southwest 433 498 38,000  Level FlightAware ADS-B
Tue 02:50:30 PM 41.9088 -72.0284 211° Southwest 435 501 38,000  Level FlightAware ADS-B (KSNC)
Tue 02:51:00 PM 41.8582 -72.0689 211° Southwest 430 495 38,000  Level FlightAware ADS-B
Tue 02:51:32 PM 41.8023 -72.1136 211° Southwest 438 504 38,000  Level FlightAware ADS-B (KSNC)
Tue 02:52:04 PM 41.7480 -72.1568 211° Southwest 439 505 38,000  Level FlightAware ADS-B (KSNC)
Tue 02:52:34 PM 41.6945 -72.1993 211° Southwest 437 503 38,000  Level FlightAware ADS-B (KSNC)
Tue 02:53:12 PM 41.6283 -72.2518 211° Southwest 438 504 38,000  Level FlightAware ADS-B
Tue 02:53:45 PM 41.5709 -72.2973 211° Southwest 436 502 38,000  Level FlightAware ADS-B (KSNC)
Tue 02:54:23 PM 41.5047 -72.3496 211° Southwest 436 502 38,000  Level FlightAware ADS-B
Tue 02:54:54 PM 41.4540 -72.3896 211° Southwest 436 502 38,000  Level FlightAware ADS-B
Tue 02:55:24 PM 41.3990 -72.4329 211° Southwest 436 502 38,000  Level FlightAware ADS-B
Tue 02:56:05 PM 41.3288 -72.4880 211° Southwest 435 501 38,000  Level FlightAware ADS-B (KSNC)
Tue 02:56:35 PM 41.2791 -72.5269 210° Southwest 433 498 38,000  Level FlightAware ADS-B
Tue 02:57:07 PM 41.2218 -72.5717 210° Southwest 432 497 38,000  Level FlightAware ADS-B (KSNC)
Tue 02:57:46 PM 41.1566 -72.6227 210° Southwest 431 496 38,000  Level FlightAware ADS-B
Tue 02:58:18 PM 41.1017 -72.6653 210° Southwest 428 493 38,000  Level FlightAware ADS-B (KSNC)
Tue 02:58:57 PM 41.0400 -72.7133 210° Southwest 426 490 38,000  Level FlightAware ADS-B (KSNC)
Tue 02:59:38 PM 40.9648 -72.7717 210° Southwest 425 489 38,000  Level FlightAware ADS-B (KSNC)
Tue 03:00:17 PM 40.8990 -72.8277 213° Southwest 419 482 38,000  Level FlightAware ADS-B (KSNC)
Tue 03:00:52 PM 40.8461 -72.8801 217° Southwest 420 483 38,000  Level FlightAware ADS-B (KSNC)
Tue 03:01:27 PM 40.7909 -72.9344 217° Southwest 421 484 38,000  Level FlightAware ADS-B
Tue 03:01:55 PM 40.7465 -72.9776 216° Southwest 422 486 38,000  Level FlightAware ADS-B (KWWD)
Tue 03:02:39 PM 40.7019 -73.0205 216° Southwest 420 483 38,000  Level FlightAware ADS-B (KSNC)
Tue 03:03:16 PM 40.6199 -73.0998 216° Southwest 420 483 38,000  Level FlightAware ADS-B (KWWD)
Tue 03:03:46 PM 40.5747 -73.1437 216° Southwest 420 483 38,000  Level FlightAware ADS-B (KSNC)
Tue 03:04:17 PM 40.5254 -73.1913 216° Southwest 420 483 38,000  Level FlightAware ADS-B (KSNC)
Tue 03:04:56 PM 40.4637 -73.2506 216° Southwest 421 484 38,000  Level FlightAware ADS-B (KSNC)
Tue 03:05:37 PM 40.4005 -73.3113 216° Southwest 420 483 38,000  Level FlightAware ADS-B (KSNC)
Tue 03:06:12 PM 40.3447 -73.3647 216° Southwest 421 484 38,000  Level FlightAware ADS-B (KSNC)
Tue 03:06:43 PM 40.2964 -73.4108 216° Southwest 422 486 38,000  Level FlightAware ADS-B (KSNC)
Tue 03:07:00 PM 40.2691 -73.4369 216° Southwest 418 481 38,000  Level FlightAware ADS-B (KWWD)
Tue 03:07:36 PM 40.2112 -73.4921 216° Southwest 420 483 38,000  Level FlightAware ADS-B (KWWD)
Tue 03:07:56 PM 40.1802 -73.5217 216° Southwest 420 483 38,000  Level FlightAware ADS-B (KWWD)
Tue 03:08:30 PM 40.1250 -73.5739 216° Southwest 426 490 38,000  Level FlightAware ADS-B (KSNC)
Tue 03:08:48 PM 40.0969 -73.6004 216° Southwest 419 482 38,000  Level FlightAware ADS-B (KWWD)
Tue 03:09:26 PM 40.0380 -73.6561 216° Southwest 419 482 38,000  Level FlightAware ADS-B (KWWD)
Tue 03:09:56 PM 39.9890 -73.7023 216° Southwest 423 487 38,000  Level FlightAware ADS-B (KWWD)
Tue 03:10:00 PM 39.9826 -73.7084 216° Southwest 424 488 38,000  Level FlightAware ADS-B (KSNC)
Tue 03:10:34 PM 39.9285 -73.7595 216° Southwest 424 488 38,000  Level FlightAware ADS-B (KSNC)
Tue 03:10:41 PM 39.9173 -73.7700 216° Southwest 418 481 38,000  Level FlightAware ADS-B (KWWD)
Tue 03:11:05 PM 39.9173 -73.7700 14° North 425 489 38,000  Level FlightAware ADS-B (KSNC)
Tue 03:11:38 PM 39.8274 -73.8544 216° Southwest 418 481 38,000  Level FlightAware ADS-B (KWWD)
Tue 03:12:13 PM 39.7723 -73.9061 216° Southwest 423 487 38,000  Level FlightAware ADS-B (KWWD)
Tue 03:12:47 PM 39.7192 -73.9559 216° Southwest 422 486 38,000  Level FlightAware ADS-B (KWWD)
Tue 03:13:25 PM 39.6580 -74.0130 216° Southwest 421 484 38,000  Level FlightAware ADS-B (KWWD)
Tue 03:13:57 PM 39.6065 -74.0609 216° Southwest 421 484 38,000  Level FlightAware ADS-B (KWWD)
Tue 03:14:28 PM 39.5587 -74.1053 216° Southwest 420 483 38,000  Level FlightAware ADS-B (KWWD)
Tue 03:14:59 PM 39.5103 -74.1501 216° Southwest 419 482 38,000  Level FlightAware ADS-B (KWWD)
Tue 03:15:29 PM 39.4628 -74.1942 216° Southwest 419 482 38,000  Level FlightAware ADS-B (KWWD)
Tue 03:15:59 PM 39.4158 -74.2377 216° Southwest 420 483 38,000  Level FlightAware ADS-B (KWWD)
Tue 03:16:30 PM 39.3665 -74.2833 216° Southwest 416 479 38,000  Level FlightAware ADS-B (KWWD)
Tue 03:17:09 PM 39.3045 -74.3405 216° Southwest 416 479 38,000  Level FlightAware ADS-B (KWWD)
Tue 03:17:40 PM 39.2553 -74.3857 215° Southwest 416 479 38,000  Level FlightAware ADS-B (KWWD)
Tue 03:18:19 PM 39.1931 -74.4428 215° Southwest 417 480 38,000  Level FlightAware ADS-B (KWWD)
Tue 03:18:58 PM 39.1304 -74.5001 215° Southwest 416 479 38,000  Level FlightAware ADS-B (KWWD)
Tue 03:19:51 PM 39.0473 -74.5759 215° Southwest 415 478 38,000  Level FlightAware ADS-B (KWWD)
Tue 03:20:38 PM 38.9717 -74.6449 215° Southwest 418 481 38,000  Level FlightAware ADS-B (KWWD)
Tue 03:21:09 PM 38.9209 -74.6910 215° Southwest 420 483 38,000  Level FlightAware ADS-B (KWWD)
Tue 03:21:39 PM 38.8740 -74.7335 215° Southwest 418 481 38,000  Level FlightAware ADS-B (KWWD)
Tue 03:22:09 PM 38.8249 -74.7779 215° Southwest 416 479 38,000  Level FlightAware ADS-B (KWWD)
Tue 03:22:47 PM 38.7654 -74.8318 215° Southwest 415 478 38,000  Level FlightAware ADS-B (KWWD)
Tue 03:23:28 PM 38.7023 -74.8888 215° Southwest 415 478 38,000  Level FlightAware ADS-B (KWWD)
Tue 03:23:58 PM 38.6520 -74.9341 215° Southwest 422 486 38,000  Level FlightAware ADS-B (EGAA / BFS)
Tue 03:24:39 PM 38.5858 -74.9935 215° Southwest 416 479 38,000  Level FlightAware ADS-B (KWWD)
Tue 03:25:17 PM 38.5252 -75.0477 215° Southwest 416 479 38,000  Level FlightAware ADS-B (KWWD)
Tue 03:25:21 PM 38.5204 -75.0520 215° Southwest 421 484 38,000  Level FlightAware ADS-B (EGAA / BFS)
Tue 03:26:19 PM 38.4267 -75.1357 215° Southwest 413 475 38,000  Level FlightAware ADS-B (KWWD)
Tue 03:26:50 PM 38.3779 -75.1793 215° Southwest 416 479 38,000  Level FlightAware ADS-B (KWWD)
Tue 03:27:21 PM 38.3302 -75.2218 215° Southwest 412 474 38,000  Level FlightAware ADS-B (KWWD)
Tue 03:28:00 PM 38.2690 -75.2763 215° Southwest 412 474 38,000  Level FlightAware ADS-B (KWWD)
Tue 03:28:40 PM 38.2064 -75.3317 215° Southwest 411 473 38,000  Level FlightAware ADS-B (KWWD)
Tue 03:29:10 PM 38.1606 -75.3723 215° Southwest 410 472 38,000  Level FlightAware ADS-B (EGAA / BFS)
Tue 03:29:50 PM 38.0975 -75.4279 215° Southwest 414 476 38,000  Level FlightAware ADS-B (KWWD)
Tue 03:30:20 PM 38.0502 -75.4687 214° Southwest 419 482 38,000  Level FlightAware ADS-B (EGAA / BFS)
Tue 03:30:30 PM 38.0345 -75.4806 211° Southwest 421 484 38,000  Level FlightAware ADS-B (EGAA / BFS)
Tue 03:31:01 PM 37.9820 -75.5200 211° Southwest 421 484 38,000  Level FlightAware ADS-B (EGAA / BFS)
Tue 03:31:31 PM 37.9314 -75.5588 211° Southwest 423 487 38,000  Level FlightAware ADS-B (EGAA / BFS)
Tue 03:32:02 PM 37.8799 -75.5979 211° Southwest 423 487 38,000  Level FlightAware ADS-B (EGAA / BFS)
Tue 03:32:40 PM 37.8161 -75.6464 211° Southwest 421 484 38,000  Level FlightAware ADS-B (KWWD)
Tue 03:33:00 PM 37.7855 -75.6782 219° Southwest 405 466 38,000  Level FlightAware ADS-B (KWWD)
Tue 03:33:37 PM 37.7388 -75.7418 227° Southwest 395 455 38,000  Level FlightAware ADS-B (KWWD)
Tue 03:34:21 PM 37.6851 -75.8158 227° Southwest 394 453 38,000  Level FlightAware ADS-B (KWWD)
Tue 03:34:37 PM 37.6628 -75.8416 223° Southwest 405 466 38,000  Level FlightAware ADS-B (KWWD)
Tue 03:34:41 PM 37.6561 -75.8474 214° Southwest 416 479 38,000  Level FlightAware ADS-B (EGAA / BFS)
Tue 03:35:15 PM 37.5968 -75.8850 207° Southwest 416 479 38,000  Level FlightAware ADS-B (KWWD)
Tue 03:35:50 PM 37.5400 -75.9204 206° Southwest 416 479 38,000  Level FlightAware ADS-B (KWWD)
Tue 03:36:21 PM 37.4869 -75.9544 207° Southwest 415 478 38,000  Level FlightAware ADS-B (KWWD)
Tue 03:37:00 PM 37.4146 -76.0010 207° Southwest 420 483 38,000  Level FlightAware ADS-B (KWWD)
Tue 03:37:48 PM 37.3314 -76.0543 207° Southwest 420 483 38,000  Level FlightAware ADS-B (KWWD)
Tue 03:38:24 PM 37.2687 -76.0942 207° Southwest 415 478 38,000  Level FlightAware ADS-B (KWWD)
Tue 03:39:12 PM 37.1859 -76.1469 207° Southwest 416 479 38,000  Level FlightAware ADS-B (KWWD)
Tue 03:39:47 PM 37.1250 -76.1854 207° Southwest 418 481 38,000  Level FlightAware ADS-B (KWWD)
Tue 03:40:29 PM 37.0498 -76.2330 207° Southwest 418 481 38,000  Level FlightAware ADS-B (KWWD)
Tue 03:41:26 PM 36.9503 -76.2959 207° Southwest 418 481 38,000  Level FlightAware ADS-B (KWWD)
Tue 03:42:15 PM 36.8714 -76.3447 207° Southwest 427 491 38,000  Level Washington Center
Tue 03:43:16 PM 36.7667 -76.4111 207° Southwest 427 491 38,000  Level Washington Center
Tue 03:44:13 PM 36.6619 -76.4800 208° Southwest 427 491 38,000  Level Washington Center
Tue 03:45:13 PM 36.5569 -76.5436 206° Southwest 427 491 38,000  Level Washington Center
Tue 03:46:14 PM 36.4522 -76.6119 208° Southwest 427 491 38,000  Level Washington Center
Tue 03:47:14 PM 36.3453 -76.6750 205° Southwest 427 491 38,000  Level Washington Center
Tue 03:48:15 PM 36.2403 -76.7406 207° Southwest 427 491 38,000  Level Washington Center
Tue 03:49:15 PM 36.1333 -76.8058 206° Southwest 427 491 38,000  Level Washington Center
Tue 03:50:16 PM 36.0283 -76.8686 206° Southwest 427 491 38,000  Level Washington Center
Tue 03:51:13 PM 35.9211 -76.9333 206° Southwest 427 491 38,000  Level Washington Center
Tue 03:52:13 PM 35.8161 -76.9956 206° Southwest 427 491 38,000  Level Washington Center
Tue 03:57:39 PM 35.2478 -77.3430 206° Southwest 423 487 38,000  Level FlightAware ADS-B
Tue 03:58:09 PM 35.1966 -77.3737 206° Southwest 423 487 38,000  Level FlightAware ADS-B
Tue 03:58:40 PM 35.1434 -77.4057 206° Southwest 422 486 38,000  Level FlightAware ADS-B
Tue 03:59:28 PM 35.0565 -77.4575 206° Southwest 422 486 38,000  Level FlightAware ADS-B
Tue 03:59:59 PM 35.0007 -77.4909 206° Southwest 423 487 38,000  Level FlightAware ADS-B
Tue 04:00:39 PM 34.9294 -77.5333 206° Southwest 424 488 38,000  Level FlightAware ADS-B
Tue 04:01:09 PM 34.8806 -77.5623 206° Southwest 423 487 38,000  Level FlightAware ADS-B
Tue 04:01:49 PM 34.8091 -77.6048 206° Southwest 422 486 38,000  Level FlightAware ADS-B
Tue 04:02:20 PM 34.7560 -77.6362 206° Southwest 421 484 38,000  Level FlightAware ADS-B
Tue 04:03:00 PM 34.6855 -77.6780 206° Southwest 421 484 38,000  Level FlightAware ADS-B
Tue 04:03:39 PM 34.6157 -77.7192 206° Southwest 420 483 38,000  Level FlightAware ADS-B
Tue 04:04:39 PM 34.5094 -77.7817 206° Southwest 420 483 38,000  Level FlightAware ADS-B
Tue 04:05:09 PM 34.4587 -77.8116 206° Southwest 420 483 38,000  Level FlightAware ADS-B
Tue 04:05:39 PM 34.4059 -77.8425 206° Southwest 420 483 38,000  Level FlightAware ADS-B
Tue 04:06:09 PM 34.3528 -77.8697 203° Southwest 430 495 38,000  Level FlightAware ADS-B
Tue 04:06:39 PM 34.2951 -77.8898 196° South 439 505 38,000  Level FlightAware ADS-B
Tue 04:07:19 PM 34.2291 -77.9089 193° South 437 503 38,000  Level FlightAware ADS-B
Tue 04:08:29 PM 34.0789 -77.9537 194° South 436 502 38,000  Level FlightAware ADS-B
Tue 04:09:43 PM 33.9414 -77.9914 194° South 444 511 38,000  Level Jacksonville Center
Tue 04:10:43 PM 33.8197 -78.0281 194° South 450 518 38,000  Level Jacksonville Center
Tue 04:11:43 PM 33.7022 -78.0597 193° South 450 518 38,000  Level Jacksonville Center
Tue 04:12:43 PM 33.5806 -78.0986 195° South 450 518 38,000  Level Jacksonville Center
Tue 04:13:43 PM 33.4628 -78.1325 193° South 450 518 38,000  Level Jacksonville Center
Tue 04:14:43 PM 33.3431 -78.1639 192° South 450 518 38,000  Level Jacksonville Center
Tue 04:15:43 PM 33.2233 -78.2000 194° South 450 518 38,000  Level Jacksonville Center
Tue 04:16:43 PM 33.1014 -78.2311 192° South 450 518 38,000  Level Jacksonville Center
Tue 04:17:43 PM 32.9836 -78.2669 194° South 450 518 38,000  Level Jacksonville Center
Tue 04:18:43 PM 32.8617 -78.2978 192° South 450 518 38,000  Level Jacksonville Center
Tue 04:19:43 PM 32.7419 -78.3336 194° South 450 518 38,000  Level Jacksonville Center
Tue 04:20:43 PM 32.6242 -78.3642 192° South 450 518 38,000  Level Jacksonville Center
Tue 04:21:43 PM 32.5064 -78.4022 195° South 450 518 38,000  Level Jacksonville Center
Tue 04:22:43 PM 32.3844 -78.4303 191° South 450 518 38,000  Level Jacksonville Center
Tue 04:23:43 PM 32.2544 -78.4733 196° South 450 518 38,000  Level Jacksonville Center
Tue 04:24:43 PM 32.1303 -78.5089 194° South 450 518 38,000  Level Jacksonville Center
Tue 04:25:43 PM 32.0128 -78.5464 195° South 450 518 38,000  Level Jacksonville Center
Tue 04:26:43 PM 31.8906 -78.5814 194° South 450 518 38,000  Level Jacksonville Center
Tue 04:27:43 PM 31.7708 -78.6164 194° South 450 518 38,000  Level Jacksonville Center
Tue 04:28:43 PM 31.6489 -78.6514 194° South 450 518 38,000  Level Jacksonville Center
Tue 04:29:43 PM 31.5311 -78.6858 194° South 443 510 38,000  Level Jacksonville Center
Tue 04:30:43 PM 31.4089 -78.7206 194° South 448 516 38,000  Level Jacksonville Center
Tue 04:31:43 PM 31.2869 -78.7553 194° South 454 522 38,000  Level Jacksonville Center
Tue 04:32:43 PM 31.1731 -78.7819 191° South 446 513 38,000  Level Jacksonville Center
Tue 04:33:43 PM 31.0511 -78.8214 195° South 451 519 38,000  Level Jacksonville Center
Tue 04:34:43 PM 30.9311 -78.8556 194° South 451 519 38,000  Level Jacksonville Center
Tue 04:36:15 PM 30.7597 -78.8992 192° South 442 509 38,000  Level Miami Center
Tue 04:37:15 PM 30.6361 -78.9356 194° South 452 520 38,000  Level Miami Center
Tue 04:38:15 PM 30.5233 -78.9669 193° South 446 513 38,000  Level Miami Center
Tue 04:39:15 PM 30.4017 -79.0031 194° South 446 513 38,000  Level Miami Center
Tue 04:40:15 PM 30.2883 -79.0536 201° Southwest 451 519 38,000  Level Miami Center
Tue 04:41:15 PM 30.1750 -79.1039 201° Southwest 443 510 38,000  Level Miami Center
Tue 04:42:15 PM 30.0617 -79.1544 201° Southwest 443 510 38,000  Level Miami Center
Tue 04:43:15 PM 29.9378 -79.2139 203° Southwest 443 510 38,000  Level Miami Center
Tue 04:44:15 PM 29.8222 -79.2664 202° Southwest 443 510 38,000  Level Miami Center
Tue 04:45:15 PM 29.7086 -79.3164 201° Southwest 443 510 38,000  Level Miami Center
Tue 04:46:15 PM 29.5892 -79.3567 196° South 443 510 38,000  Level Miami Center
Tue 04:47:15 PM 29.4756 -79.4136 204° Southwest 443 510 38,000  Level Miami Center
Tue 04:48:15 PM 29.3619 -79.4611 200° South 443 510 38,000  Level Miami Center
Tue 04:49:15 PM 29.2483 -79.5153 203° Southwest 443 510 38,000  Level Miami Center
Tue 04:50:15 PM 29.1267 -79.5575 197° South 448 516 38,000  Level Miami Center
Tue 04:51:15 PM 29.0192 -79.6189 207° Southwest 448 516 38,000  Level Miami Center
Tue 04:52:15 PM 28.9114 -79.6828 207° Southwest 442 509 38,000  Level Miami Center
Tue 04:53:15 PM 28.8058 -79.7464 208° Southwest 442 509 38,000  Level Miami Center
Tue 04:54:15 PM 28.6981 -79.8122 208° Southwest 437 503 38,000  Level Miami Center
Tue 04:55:15 PM 28.5903 -79.8756 207° Southwest 442 509 38,000  Level Miami Center
Tue 04:56:15 PM 28.4825 -79.9411 208° Southwest 437 503 38,000  Level Miami Center
Tue 04:57:15 PM 28.3767 -80.0067 209° Southwest 443 510 38,000  Level Miami Center
Tue 04:58:15 PM 28.2667 -80.0719 208° Southwest 443 510 38,000  Level Miami Center
Tue 04:59:15 PM 28.1694 -80.1281 207° Southwest 443 510 38,000  Level Miami Center
Tue 05:00:15 PM 28.0617 -80.1931 208° Southwest 443 510 38,000  Level Miami Center
Tue 05:01:15 PM 27.9389 -80.2647 207° Southwest 443 510 38,000  Level Miami Center
Tue 05:02:15 PM 27.8372 -80.3250 208° Southwest 449 517 38,000  Level Miami Center
Tue 05:03:15 PM 27.7250 -80.3897 207° Southwest 449 517 38,000  Level Miami Center
Tue 05:04:15 PM 27.6169 -80.4544 208° Southwest 449 517 38,000  Level Miami Center
Tue 05:05:15 PM 27.5047 -80.5186 207° Southwest 449 517 38,000  Level Miami Center
Tue 05:06:15 PM 27.3964 -80.5856 209° Southwest 454 522 38,000  Level Miami Center
Tue 05:07:15 PM 27.2864 -80.6497 207° Southwest 454 522 38,000  Level Miami Center
Tue 05:08:15 PM 27.1781 -80.7139 208° Southwest 449 517 38,000  Level Miami Center
Tue 05:09:15 PM 27.0678 -80.7778 207° Southwest 444 511 38,000  Level Miami Center
Tue 05:10:15 PM 26.9497 -80.8158 196° South 444 511 38,000  Level Miami Center
Tue 05:11:15 PM 26.8242 -80.8278 185° South 444 511 38,000  Level Miami Center
Tue 05:12:15 PM 26.6958 -80.8700 196° South 443 510 38,000  Level Miami Center
Tue 05:13:15 PM 26.5794 -80.9169 200° South 443 510 38,000  Level Miami Center
Tue 05:14:15 PM 26.4614 -80.9639 200° South 452 520 38,000  Level Miami Center
Tue 05:15:15 PM 26.3575 -81.0161 204° Southwest 452 520 38,000  Level Miami Center
Tue 05:16:15 PM 26.2447 -81.0886 210° Southwest 447 514 38,000  Level Miami Center
Tue 05:17:15 PM 26.1425 -81.1589 212° Southwest 442 509 38,000  Level Miami Center
Tue 05:18:15 PM 26.0361 -81.2267 210° Southwest 442 509 38,000  Level Miami Center
Tue 05:19:15 PM 25.9294 -81.2967 211° Southwest 442 509 38,000  Level Miami Center
Tue 05:20:15 PM 25.8250 -81.3644 210° Southwest 442 509 38,000  Level Miami Center
Tue 05:21:15 PM 25.7206 -81.4342 211° Southwest 442 509 38,000  Level Miami Center
Tue 05:22:15 PM 25.6142 -81.5017 210° Southwest 442 509 38,000  Level Miami Center
Tue 05:23:15 PM 25.5053 -81.5711 210° Southwest 442 509 38,000  Level Miami Center
Tue 05:24:15 PM 25.4008 -81.6383 210° Southwest 442 509 38,000  Level Miami Center
Tue 05:25:15 PM 25.2922 -81.7075 210° Southwest 447 514 38,000  Level Miami Center
Tue 05:26:15 PM 25.1875 -81.7767 211° Southwest 447 514 38,000  Level Miami Center
Tue 05:27:15 PM 25.0808 -81.8436 210° Southwest 447 514 38,000 -350 Level Miami Center
Tue 05:28:15 PM 24.9764 -81.9081 209° Southwest 447 514 37,300 -850 Descending Miami Center
Tue 05:29:15 PM 24.8739 -81.9725 210° Southwest 441 507 36,300 -1,000 Descending Miami Center
Tue 05:30:15 PM 24.7819 -82.0328 211° Southwest 422 486 35,300 -1,000 Descending Miami Center
Tue 05:31:15 PM 24.6881 -82.0906 209° Southwest 402 463 34,300 -1,250 Descending Miami Center
Tue 05:32:15 PM 24.5986 -82.1461 209° Southwest 391 450 32,800 -1,400 Descending Miami Center
Tue 05:33:15 PM 24.5086 -82.2061 211° Southwest 391 450 31,500 -1,200 Descending Miami Center
Tue 05:34:15 PM 24.4192 -82.2569 207° Southwest 378 435 30,400 -1,200 Descending Miami Center
Tue 05:35:15 PM 24.3378 -82.3128 212° Southwest 366 421 29,100 -1,300 Descending Miami Center
Tue 05:36:15 PM 24.2503 -82.3636 208° Southwest 359 413 27,800 -1,300 Descending Miami Center
Tue 05:37:15 PM 24.1692 -82.4147 210° Southwest 354 407 26,500 -1,250 Descending Miami Center
Tue 05:38:15 PM 24.0961 -82.4636 211° Southwest 354 407 25,300 -1,200 Descending Miami Center
Tue 05:40:00 PM 23.8987 -82.4538 177° South  Level Estimated
Tue 05:47:00 PM 23.1089 -82.4149 177° South  Level Estimated
Tue 05:48:00 PM 22.9961 -82.4094 180° South  Level Estimated
Tue 05:49:00 PM 22.9891 -82.4091 180° South  Level Estimated
Tue 05:50:00 PM 22.9891 -82.4091 180° South  Level Estimated
Tue 05:51:00 PM 22.9891 -82.4091 180° South  Level Estimated
Tue 05:52:00 PM 22.9891 -82.4091 180° South  Level Estimated
Tue 05:53:00 PM 22.9891 -82.4091 180° South  Level Estimated
Tue 05:54:00 PM 22.9891 -82.4091 180° South  Level Estimated
Tue 05:55:00 PM 22.9891 -82.4091 180° South  Level Estimated
Tue 05:56:00 PM 22.9891 -82.4091 180° South  Level Estimated
Tue 05:57:00 PM 22.9891 -82.4091 180° South  Level Estimated
Tue 05:58:00 PM 22.9891 -82.4091 180° South  Level Estimated
Tue 05:59:00 PM 22.9891 -82.4091 180° South  Level Estimated
Tue 06:00:00 PM 22.9891 -82.4091 180° South  Level Estimated
Tue 06:01:00 PM 22.9891 -82.4091 180° South  Level Estimated
Tue 06:02:00 PM 22.9891 -82.4091 180° South  Level Estimated
Tue 06:03:00 PM 22.9891 -82.4091 180° South  Level Estimated
Tue 06:04:00 PM 22.9891 -82.4091 180° South  Level Estimated
Tue 06:05:00 PM 22.9891 -82.4091 180° South  Level Estimated
Tue 06:06:00 PM 22.9891 -82.4091 180° South  Level Estimated
Tue 06:07:00 PM 22.9891 -82.4091 180° South  Level Estimated
Tue 06:08:00 PM 22.9891 -82.4091 180° South  Level Estimated
Tue 06:09:00 PM 22.9891 -82.4091 180° South  Level Estimated
Tue 06:10:00 PM 22.9891 -82.4091 180° South  Level Estimated

Login

Don't have an account? Register now (free) for customized features, flight alerts, and more!